Time;durP1;ratioP1;P1;durP2;ratioP2;P2;SDS_P1;SDS_P2;PMS_P1;PMS_P2;Temp;Humidity;BMP_temperature;BMP_pressure;BME280_temperature;BME280_humidity;BME280_pressure;Samples;Min_cycle;Max_cycle;Signal;HPM_P1;HPM_P2
2023/07/13 00:00:53;;;;;;;2.43;1.30;;;17.20;93.80;;;;;;2082389;28;20231;-69
2023/07/13 00:01:54;;;;;;;1.17;0.97;;;17.10;93.70;;;;;;2076271;28;20504;-70
2023/07/13 00:02:55;;;;;;;1.90;1.30;;;17.10;93.10;;;;;;2070038;28;20475;-68
2023/07/13 00:03:58;;;;;;;2.30;1.10;;;17.00;92.70;;;;;;2075154;28;21059;-68
2023/07/13 00:05:00;;;;;;;2.87;1.53;;;17.00;92.80;;;;;;2086097;28;20247;-69
2023/07/13 00:06:02;;;;;;;2.60;1.53;;;17.00;92.50;;;;;;2075312;28;20981;-72
2023/07/13 00:07:04;;;;;;;1.40;1.20;;;17.00;92.50;;;;;;2068881;28;20477;-69
2023/07/13 00:08:06;;;;;;;1.47;0.90;;;17.00;92.00;;;;;;2070822;28;20427;-68
2023/07/13 00:09:06;;;;;;;1.30;1.20;;;17.00;92.30;;;;;;2071797;28;20457;-69
2023/07/13 00:10:09;;;;;;;1.53;1.30;;;17.00;92.30;;;;;;2078825;28;20901;-68
2023/07/13 00:11:10;;;;;;;2.63;1.30;;;16.90;93.00;;;;;;2076195;28;20712;-68
2023/07/13 00:12:28;;;;;;;1.43;1.00;;;17.00;92.50;;;;;;2062451;28;20475;-68
2023/07/13 00:13:30;;;;;;;2.27;1.10;;;17.00;91.90;;;;;;2065118;28;20554;-68
2023/07/13 00:14:31;;;;;;;1.37;1.20;;;17.00;92.00;;;;;;2062430;28;20514;-67
2023/07/13 00:15:32;;;;;;;1.40;1.27;;;17.00;91.70;;;;;;2062296;28;20502;-68
2023/07/13 00:16:35;;;;;;;2.37;1.43;;;16.90;91.50;;;;;;2066787;28;20239;-69
2023/07/13 00:17:38;;;;;;;2.13;1.30;;;16.80;91.50;;;;;;2078611;28;20627;-69
2023/07/13 00:18:39;;;;;;;1.70;1.20;;;16.70;92.50;;;;;;2082159;28;20470;-69
2023/07/13 00:19:40;;;;;;;3.33;1.10;;;16.70;92.70;;;;;;2064525;28;20530;-69
2023/07/13 00:20:41;;;;;;;3.23;1.17;;;16.60;91.90;;;;;;2062517;28;20526;-69
2023/07/13 00:21:43;;;;;;;1.57;1.20;;;16.60;92.20;;;;;;2078486;28;20235;-69
2023/07/13 00:22:44;;;;;;;3.33;1.17;;;16.50;92.60;;;;;;2075628;28;20973;-69
2023/07/13 00:23:45;;;;;;;1.83;1.00;;;16.60;91.80;;;;;;2075536;28;20471;-69
2023/07/13 00:24:46;;;;;;;1.83;1.20;;;16.60;91.90;;;;;;2074684;28;20316;-69
2023/07/13 00:25:46;;;;;;;3.30;1.40;;;16.60;91.70;;;;;;2078454;28;20312;-69
2023/07/13 00:26:47;;;;;;;1.10;1.00;;;16.60;92.10;;;;;;2070152;28;20237;-69
2023/07/13 00:27:48;;;;;;;1.83;1.20;;;16.60;90.80;;;;;;2078743;28;20228;-71
2023/07/13 00:28:49;;;;;;;1.90;1.00;;;16.60;91.00;;;;;;2074695;28;20596;-69
2023/07/13 00:29:50;;;;;;;1.83;1.10;;;16.60;90.20;;;;;;2078542;28;20499;-70
2023/07/13 00:30:51;;;;;;;2.13;0.90;;;16.50;89.60;;;;;;2086896;28;20671;-70
2023/07/13 00:31:52;;;;;;;3.60;1.00;;;16.60;90.10;;;;;;2076413;28;20232;-69
2023/07/13 00:32:53;;;;;;;0.97;0.97;;;16.70;89.40;;;;;;2069401;28;20299;-69
2023/07/13 00:33:54;;;;;;;1.20;1.00;;;16.80;88.80;;;;;;2074535;28;20532;-70
2023/07/13 00:34:55;;;;;;;1.73;1.20;;;16.80;87.40;;;;;;2085207;28;20235;-69
2023/07/13 00:35:57;;;;;;;1.13;1.00;;;16.70;88.00;;;;;;2083906;28;20242;-70
2023/07/13 00:36:58;;;;;;;2.00;1.20;;;16.70;89.00;;;;;;2074094;28;20469;-69
2023/07/13 00:37:58;;;;;;;3.60;1.50;;;16.80;87.30;;;;;;2074069;28;20478;-70
2023/07/13 00:38:59;;;;;;;3.70;1.17;;;17.00;85.50;;;;;;2082649;28;20861;-70
2023/07/13 00:40:00;;;;;;;2.30;1.37;;;16.90;85.30;;;;;;2076277;28;20609;-70
2023/07/13 00:41:03;;;;;;;1.37;1.10;;;16.80;85.00;;;;;;2077528;28;20228;-72
2023/07/13 00:42:04;;;;;;;3.13;1.10;;;16.90;85.10;;;;;;2070527;28;20232;-69
2023/07/13 00:43:17;;;;;;;1.80;1.20;;;16.90;85.40;;;;;;2067043;28;20439;-69
2023/07/13 00:44:21;;;;;;;1.03;0.93;;;16.80;85.30;;;;;;2070836;28;20450;-70
2023/07/13 00:45:21;;;;;;;1.93;1.13;;;16.70;85.10;;;;;;2070963;28;20979;-70
2023/07/13 00:46:27;;;;;;;1.07;0.97;;;16.70;85.50;;;;;;2070230;28;20491;-70
2023/07/13 00:47:28;;;;;;;3.87;1.10;;;16.60;85.30;;;;;;2071171;28;20229;-69
2023/07/13 00:48:32;;;;;;;1.80;1.00;;;16.60;86.00;;;;;;2078500;28;20982;-69
2023/07/13 00:49:36;;;;;;;1.80;1.07;;;16.70;86.10;;;;;;2080406;28;20232;-70
2023/07/13 00:50:39;;;;;;;2.97;1.30;;;16.80;85.70;;;;;;2074518;28;21056;-69
2023/07/13 00:51:49;;;;;;;1.57;1.00;;;16.80;86.20;;;;;;2070545;28;20474;-69
2023/07/13 00:52:54;;;;;;;2.50;0.90;;;16.80;84.30;;;;;;2064305;28;20606;-69
2023/07/13 00:54:00;;;;;;;2.80;1.00;;;16.80;85.20;;;;;;2071396;28;20474;-70
2023/07/13 00:55:01;;;;;;;2.00;1.10;;;16.80;82.70;;;;;;2076969;28;20458;-70
2023/07/13 00:56:03;;;;;;;2.70;1.23;;;16.80;82.90;;;;;;2057817;28;20447;-70
2023/07/13 00:57:09;;;;;;;2.80;1.23;;;16.70;82.70;;;;;;2065590;28;20497;-70
2023/07/13 00:58:10;;;;;;;1.50;1.00;;;16.70;83.60;;;;;;2066528;28;20620;-70
2023/07/13 00:59:13;;;;;;;2.20;1.17;;;16.60;84.20;;;;;;2073527;28;20430;-70
2023/07/13 01:00:14;;;;;;;2.40;1.10;;;16.70;84.40;;;;;;2079315;28;20755;-70
2023/07/13 01:01:15;;;;;;;2.13;1.10;;;16.70;83.90;;;;;;2060038;28;20440;-70
2023/07/13 01:02:18;;;;;;;2.00;1.20;;;16.60;83.70;;;;;;2087948;28;20471;-70
2023/07/13 01:03:19;;;;;;;1.10;1.00;;;16.60;84.10;;;;;;2065642;28;20542;-70
2023/07/13 01:04:20;;;;;;;1.50;1.00;;;16.60;82.60;;;;;;2079955;28;20534;-70
2023/07/13 01:05:25;;;;;;;1.47;1.20;;;16.60;83.40;;;;;;2055355;28;20419;-70
2023/07/13 01:06:26;;;;;;;2.60;1.30;;;16.60;84.00;;;;;;2060447;28;20468;-69
2023/07/13 01:07:28;;;;;;;2.70;1.00;;;16.60;84.50;;;;;;2052535;28;20486;-72
2023/07/13 01:08:29;;;;;;;2.33;1.10;;;16.60;84.00;;;;;;2079939;28;20202;-70
2023/07/13 01:09:30;;;;;;;2.40;1.33;;;16.60;83.00;;;;;;2066375;28;20506;-68
2023/07/13 01:10:38;;;;;;;4.23;1.17;;;16.50;81.30;;;;;;2068031;28;20459;-68
2023/07/13 01:11:41;;;;;;;1.13;0.93;;;16.40;82.60;;;;;;2059801;28;20240;-69
2023/07/13 01:12:42;;;;;;;2.43;1.10;;;16.40;82.70;;;;;;2077667;28;20991;-69
2023/07/13 01:13:43;;;;;;;2.53;1.10;;;16.40;83.70;;;;;;2060049;28;20534;-69
2023/07/13 01:14:43;;;;;;;2.53;1.10;;;16.30;83.50;;;;;;2074975;28;20423;-68
2023/07/13 01:15:48;;;;;;;2.30;1.20;;;16.30;82.40;;;;;;2057211;28;20718;-70
2023/07/13 01:16:50;;;;;;;3.60;1.20;;;16.20;84.00;;;;;;2068637;28;20661;-69
2023/07/13 01:17:50;;;;;;;2.67;1.27;;;16.20;83.70;;;;;;2058339;28;21041;-69
2023/07/13 01:18:51;;;;;;;1.70;1.20;;;16.10;84.80;;;;;;2067585;28;20502;-68
2023/07/13 01:19:52;;;;;;;1.60;1.23;;;16.20;84.10;;;;;;2065807;28;20224;-69
2023/07/13 01:21:04;;;;;;;3.43;1.27;;;16.20;84.60;;;;;;2087993;28;20881;-68
2023/07/13 01:22:18;;;;;;;2.60;1.10;;;16.20;85.10;;;;;;2068856;28;20889;-69
2023/07/13 01:23:19;;;;;;;1.73;1.10;;;16.20;84.30;;;;;;2060880;28;20467;-69
2023/07/13 01:24:20;;;;;;;1.37;0.90;;;16.10;83.40;;;;;;2070710;28;20456;-69
2023/07/13 01:25:22;;;;;;;1.30;1.03;;;16.10;83.70;;;;;;2057181;28;20423;-68
2023/07/13 01:26:22;;;;;;;2.37;1.00;;;16.10;84.10;;;;;;2071283;28;20190;-69
2023/07/13 01:27:26;;;;;;;2.37;1.40;;;16.10;83.50;;;;;;2059311;28;20783;-68
2023/07/13 01:28:29;;;;;;;3.70;1.23;;;16.10;83.60;;;;;;2075556;28;20185;-69
2023/07/13 01:29:32;;;;;;;1.37;0.90;;;16.10;83.70;;;;;;2064461;28;20563;-69
2023/07/13 01:30:33;;;;;;;1.77;1.10;;;16.10;83.10;;;;;;2073123;28;20493;-68
2023/07/13 01:31:34;;;;;;;2.10;1.17;;;16.10;82.70;;;;;;2056888;28;20857;-68
2023/07/13 01:32:36;;;;;;;1.67;0.90;;;16.10;83.10;;;;;;2063873;28;20206;-68
2023/07/13 01:33:41;;;;;;;3.15;0.95;;;16.10;83.10;;;;;;2057092;28;20562;-68
2023/07/13 01:34:42;;;;;;;3.33;1.10;;;16.00;83.00;;;;;;2077757;28;20188;-69
2023/07/13 01:35:45;;;;;;;1.20;1.00;;;15.90;83.90;;;;;;2072572;28;20581;-68
2023/07/13 01:36:46;;;;;;;2.63;1.10;;;16.00;83.80;;;;;;2080685;28;20523;-68
2023/07/13 01:37:46;;;;;;;3.63;1.00;;;15.90;84.00;;;;;;2070853;28;20499;-70
2023/07/13 01:38:47;;;;;;;1.63;1.03;;;15.90;83.40;;;;;;2069990;28;20187;-69
2023/07/13 01:39:48;;;;;;;2.10;1.20;;;16.00;83.80;;;;;;2067525;28;20225;-68
2023/07/13 01:40:49;;;;;;;2.27;1.30;;;15.90;84.00;;;;;;2076145;28;20189;-68
2023/07/13 01:41:50;;;;;;;3.33;1.20;;;16.00;83.40;;;;;;2059960;28;20238;-68
2023/07/13 01:42:50;;;;;;;2.60;1.20;;;16.00;82.90;;;;;;2075634;28;20431;-68
2023/07/13 01:43:51;;;;;;;2.77;1.00;;;16.00;83.40;;;;;;2069285;28;20296;-68
2023/07/13 01:44:52;;;;;;;1.87;1.20;;;16.00;83.00;;;;;;2085706;28;20664;-69
2023/07/13 01:45:52;;;;;;;3.07;1.10;;;15.90;83.40;;;;;;2055394;28;20212;-71
2023/07/13 01:46:53;;;;;;;2.63;1.30;;;15.90;83.30;;;;;;2078608;28;20618;-68
2023/07/13 01:47:54;;;;;;;1.30;1.10;;;16.00;83.40;;;;;;2070021;28;20573;-68
2023/07/13 01:48:55;;;;;;;3.13;1.17;;;15.90;83.30;;;;;;2061441;28;20431;-69
2023/07/13 01:49:57;;;;;;;2.63;1.47;;;15.80;84.40;;;;;;2059517;28;20316;-68
2023/07/13 01:50:57;;;;;;;1.70;1.10;;;15.80;86.70;;;;;;2080794;28;20413;-68
2023/07/13 01:51:58;;;;;;;3.73;1.20;;;15.90;85.60;;;;;;2054623;28;20484;-69
2023/07/13 01:53:00;;;;;;;1.93;1.03;;;16.00;84.60;;;;;;2071548;28;20280;-69
2023/07/13 01:54:01;;;;;;;2.97;1.10;;;16.10;83.50;;;;;;2062632;28;20233;-70
2023/07/13 01:55:02;;;;;;;2.23;1.23;;;16.10;83.40;;;;;;2072606;28;20878;-69
2023/07/13 01:56:02;;;;;;;1.53;0.90;;;16.10;82.60;;;;;;2070155;28;20323;-69
2023/07/13 01:57:03;;;;;;;1.30;1.00;;;16.10;82.50;;;;;;2084370;28;20420;-69
2023/07/13 01:58:05;;;;;;;1.93;1.00;;;16.20;82.10;;;;;;2066542;28;20224;-69
2023/07/13 01:59:06;;;;;;;1.53;1.20;;;16.10;82.50;;;;;;2076822;28;20185;-69
2023/07/13 02:00:09;;;;;;;1.70;1.20;;;16.10;82.30;;;;;;2067882;28;20470;-69
2023/07/13 02:01:10;;;;;;;2.03;1.13;;;16.10;82.50;;;;;;2078982;28;20188;-69
2023/07/13 02:02:12;;;;;;;3.00;1.10;;;16.10;83.10;;;;;;2088027;28;20436;-69
2023/07/13 02:03:17;;;;;;;1.37;1.00;;;16.20;82.40;;;;;;2065059;28;20942;-70
2023/07/13 02:04:19;;;;;;;2.57;1.17;;;16.20;82.00;;;;;;2072039;28;20431;-70
2023/07/13 02:05:22;;;;;;;1.45;1.13;;;16.30;83.10;;;;;;2065715;28;20464;-70
2023/07/13 02:06:22;;;;;;;2.07;1.23;;;16.30;82.90;;;;;;2085477;28;20590;-68
2023/07/13 02:07:23;;;;;;;5.37;1.20;;;16.30;82.50;;;;;;2062794;28;20427;-68
2023/07/13 02:08:24;;;;;;;1.37;1.00;;;16.30;82.50;;;;;;2072605;28;20182;-69
2023/07/13 02:09:26;;;;;;;2.17;1.20;;;16.30;82.30;;;;;;2063110;28;20455;-68
2023/07/13 02:10:28;;;;;;;1.02;0.95;;;16.20;81.80;;;;;;2075945;28;20593;-69
2023/07/13 02:11:32;;;;;;;1.40;1.13;;;16.20;83.00;;;;;;2059040;28;20240;-70
2023/07/13 02:12:34;;;;;;;1.80;1.10;;;16.20;83.20;;;;;;2074002;28;20600;-68
2023/07/13 02:13:35;;;;;;;1.43;1.03;;;16.10;83.10;;;;;;2073249;28;20299;-68
2023/07/13 02:14:36;;;;;;;4.70;1.23;;;16.10;82.90;;;;;;2067266;28;21075;-68
2023/07/13 02:15:41;;;;;;;2.90;1.33;;;16.10;83.10;;;;;;2052786;28;20229;-69
2023/07/13 02:16:41;;;;;;;2.03;1.30;;;16.10;83.10;;;;;;2077650;28;20192;-69
2023/07/13 02:17:42;;;;;;;1.60;1.13;;;16.10;82.80;;;;;;2074034;28;21048;-69
2023/07/13 02:18:43;;;;;;;2.77;1.30;;;16.00;82.90;;;;;;2071962;28;20682;-69
2023/07/13 02:19:44;;;;;;;2.70;1.40;;;16.00;84.90;;;;;;2057805;28;20750;-68
2023/07/13 02:20:45;;;;;;;2.90;1.20;;;16.00;86.20;;;;;;2079180;28;20433;-69
2023/07/13 02:21:47;;;;;;;2.40;1.37;;;16.00;88.30;;;;;;2045346;28;20860;-70
2023/07/13 02:22:48;;;;;;;2.87;1.53;;;15.90;90.90;;;;;;2077100;28;20985;-69
2023/07/13 02:23:50;;;;;;;2.33;1.20;;;15.90;90.70;;;;;;2063633;28;20484;-69
2023/07/13 02:24:51;;;;;;;2.67;1.20;;;15.90;91.60;;;;;;2072566;28;20198;-69
2023/07/13 02:26:00;;;;;;;5.43;1.60;;;15.80;92.20;;;;;;2071764;28;20481;-69
2023/07/13 02:27:02;;;;;;;2.57;1.33;;;15.70;93.40;;;;;;2077477;28;20197;-69
2023/07/13 02:28:03;;;;;;;3.93;1.30;;;15.70;92.50;;;;;;2065267;28;20482;-69
2023/07/13 02:29:04;;;;;;;4.40;1.40;;;15.60;92.80;;;;;;2079104;28;20522;-69
2023/07/13 02:30:06;;;;;;;2.47;1.10;;;15.60;92.50;;;;;;2066246;28;20491;-68
2023/07/13 02:31:13;;;;;;;1.20;1.00;;;15.60;92.00;;;;;;2079491;28;20829;-68
2023/07/13 02:32:14;;;;;;;6.90;1.30;;;15.60;91.80;;;;;;2074079;28;20466;-67
2023/07/13 02:33:15;;;;;;;2.93;1.30;;;15.60;92.10;;;;;;2068351;28;20436;-68
2023/07/13 02:34:16;;;;;;;3.57;1.30;;;15.50;92.50;;;;;;2081107;28;20349;-68
2023/07/13 02:35:16;;;;;;;2.80;1.57;;;15.50;92.50;;;;;;2060102;28;20276;-68
2023/07/13 02:36:18;;;;;;;7.87;1.40;;;15.60;92.90;;;;;;2069245;28;20222;-69
2023/07/13 02:37:19;;;;;;;1.10;1.00;;;15.60;92.50;;;;;;2072047;28;20322;-69
2023/07/13 02:38:20;;;;;;;2.67;1.27;;;15.60;92.40;;;;;;2079364;28;20938;-68
2023/07/13 02:39:21;;;;;;;1.43;1.20;;;15.60;91.90;;;;;;2061349;28;20576;-69
2023/07/13 02:40:21;;;;;;;3.17;1.20;;;15.60;91.70;;;;;;2072844;28;20178;-69
2023/07/13 02:41:23;;;;;;;1.20;1.10;;;15.60;91.70;;;;;;2054532;28;20197;-69
2023/07/13 02:42:23;;;;;;;4.23;1.67;;;15.60;92.50;;;;;;2076426;28;20192;-69
2023/07/13 02:43:24;;;;;;;1.47;0.97;;;15.60;92.30;;;;;;2070151;28;20423;-69
2023/07/13 02:44:25;;;;;;;3.00;1.30;;;15.60;92.20;;;;;;2073494;28;20216;-69
2023/07/13 02:45:27;;;;;;;3.07;1.40;;;15.60;92.50;;;;;;2062113;28;20576;-69
2023/07/13 02:46:31;;;;;;;2.33;1.20;;;15.60;92.00;;;;;;2080391;28;20185;-69
2023/07/13 02:47:33;;;;;;;2.58;1.20;;;15.60;92.10;;;;;;2053888;28;20510;-69
2023/07/13 02:48:35;;;;;;;2.67;1.20;;;15.60;92.10;;;;;;2064922;28;20201;-69
2023/07/13 02:49:36;;;;;;;1.57;1.23;;;15.50;92.90;;;;;;2066997;28;20482;-70
2023/07/13 02:50:37;;;;;;;2.30;1.50;;;15.40;93.00;;;;;;2072935;28;20923;-69
2023/07/13 02:51:38;;;;;;;2.20;1.23;;;15.40;92.50;;;;;;2077730;28;20224;-70
2023/07/13 02:52:38;;;;;;;1.37;1.20;;;15.60;92.40;;;;;;2078451;28;20252;-68
2023/07/13 02:53:39;;;;;;;2.17;1.10;;;15.60;92.80;;;;;;2078001;28;20236;-68
2023/07/13 02:54:40;;;;;;;3.03;1.33;;;15.50;93.30;;;;;;2077311;28;20909;-71
2023/07/13 02:55:41;;;;;;;1.33;1.17;;;15.50;93.80;;;;;;2079116;28;20224;-69
2023/07/13 02:56:43;;;;;;;1.60;1.10;;;15.40;93.80;;;;;;2070743;28;20229;-69
2023/07/13 02:57:44;;;;;;;2.50;1.23;;;15.50;93.70;;;;;;2071026;28;20225;-69
2023/07/13 02:58:44;;;;;;;1.30;1.20;;;15.50;93.60;;;;;;2073005;28;20475;-68
2023/07/13 02:59:47;;;;;;;4.57;1.43;;;15.40;93.50;;;;;;2074503;28;20234;-69
2023/07/13 03:00:50;;;;;;;2.03;1.30;;;15.40;93.70;;;;;;2074879;28;20229;-68
2023/07/13 03:01:50;;;;;;;1.92;1.17;;;15.30;93.60;;;;;;2067453;28;20240;-68
2023/07/13 03:02:52;;;;;;;3.20;1.47;;;15.40;94.40;;;;;;2062592;28;20241;-69
2023/07/13 03:03:53;;;;;;;3.20;1.40;;;15.30;94.80;;;;;;2066128;28;20233;-68
2023/07/13 03:04:56;;;;;;;1.27;1.10;;;15.30;94.80;;;;;;2075452;28;20462;-68
2023/07/13 03:06:02;;;;;;;3.75;1.20;;;15.40;94.70;;;;;;2073235;28;20259;-69
2023/07/13 03:07:04;;;;;;;5.47;1.30;;;15.40;94.90;;;;;;2077975;28;20248;-69
2023/07/13 03:08:06;;;;;;;2.10;1.40;;;15.50;94.50;;;;;;2084551;28;20536;-68
2023/07/13 03:09:06;;;;;;;2.92;1.30;;;15.50;93.90;;;;;;2075484;28;20854;-69
2023/07/13 03:10:08;;;;;;;1.57;1.17;;;15.40;93.30;;;;;;2072026;28;20186;-68
2023/07/13 03:11:16;;;;;;;2.08;1.17;;;15.50;92.90;;;;;;2073087;28;20181;-69
2023/07/13 03:12:17;;;;;;;1.88;1.20;;;15.50;93.40;;;;;;2081385;28;20182;-68
2023/07/13 03:13:18;;;;;;;3.90;1.40;;;15.30;93.90;;;;;;2060863;28;20200;-68
2023/07/13 03:14:19;;;;;;;2.50;1.03;;;15.20;94.30;;;;;;2066666;28;20202;-69
2023/07/13 03:15:19;;;;;;;2.57;1.20;;;15.30;94.10;;;;;;2074491;28;20234;-70
2023/07/13 03:16:20;;;;;;;1.40;1.10;;;15.30;95.20;;;;;;2069540;28;24205;-68
2023/07/13 03:17:21;;;;;;;2.53;1.40;;;15.30;95.10;;;;;;2062725;28;20609;-68
2023/07/13 03:18:22;;;;;;;1.47;1.20;;;15.30;94.70;;;;;;2076105;28;20252;-68
2023/07/13 03:19:22;;;;;;;2.60;1.60;;;15.30;94.90;;;;;;2066224;28;20394;-68
2023/07/13 03:20:23;;;;;;;2.30;1.47;;;15.40;94.70;;;;;;2074438;28;20881;-70
2023/07/13 03:21:24;;;;;;;4.57;1.63;;;15.40;94.70;;;;;;2076853;28;20225;-69
2023/07/13 03:22:25;;;;;;;2.73;1.57;;;15.40;94.70;;;;;;2078573;28;20331;-68
2023/07/13 03:23:26;;;;;;;1.70;1.23;;;15.40;94.70;;;;;;2078480;28;20469;-69
2023/07/13 03:24:27;;;;;;;2.65;1.27;;;15.40;94.80;;;;;;2075175;28;20787;-69
2023/07/13 03:25:28;;;;;;;2.63;1.40;;;15.40;94.60;;;;;;2076091;28;20645;-70
2023/07/13 03:26:30;;;;;;;2.63;1.43;;;15.40;94.20;;;;;;2073343;28;20236;-69
2023/07/13 03:27:32;;;;;;;3.45;1.30;;;15.40;94.00;;;;;;2068627;28;20320;-68
2023/07/13 03:28:33;;;;;;;5.32;1.27;;;15.30;93.80;;;;;;2069686;28;20832;-69
2023/07/13 03:29:34;;;;;;;3.13;1.40;;;15.30;93.80;;;;;;2074886;28;20233;-69
2023/07/13 03:30:35;;;;;;;2.43;1.40;;;15.20;94.60;;;;;;2070001;28;20530;-69
2023/07/13 03:31:37;;;;;;;6.47;1.33;;;15.30;94.10;;;;;;2074497;28;20236;-71
2023/07/13 03:32:37;;;;;;;4.03;1.65;;;15.30;94.00;;;;;;2074367;28;20233;-69
2023/07/13 03:33:38;;;;;;;5.23;1.63;;;15.30;94.00;;;;;;2066858;28;20230;-69
2023/07/13 03:34:39;;;;;;;8.67;1.57;;;15.30;93.80;;;;;;2069563;28;20829;-70
2023/07/13 03:35:41;;;;;;;3.73;1.30;;;15.40;93.80;;;;;;2068557;28;20229;-68
2023/07/13 03:36:42;;;;;;;8.45;2.17;;;15.50;93.70;;;;;;2077637;28;20221;-69
2023/07/13 03:37:42;;;;;;;4.40;1.57;;;15.50;93.50;;;;;;2086179;28;20235;-68
2023/07/13 03:38:43;;;;;;;6.20;1.50;;;15.50;93.70;;;;;;2075985;28;20288;-69
2023/07/13 03:39:44;;;;;;;5.23;1.50;;;15.50;93.90;;;;;;2066543;28;20239;-68
2023/07/13 03:40:44;;;;;;;4.97;1.70;;;15.50;94.10;;;;;;2075448;28;20255;-69
2023/07/13 03:41:45;;;;;;;3.23;1.47;;;15.60;93.80;;;;;;2078804;28;20228;-70
2023/07/13 03:42:46;;;;;;;4.73;1.37;;;15.60;94.30;;;;;;2078232;28;20290;-68
2023/07/13 03:43:49;;;;;;;4.03;1.30;;;15.40;94.60;;;;;;2073005;28;20769;-69
2023/07/13 03:44:52;;;;;;;2.77;1.30;;;15.30;94.50;;;;;;2071298;28;20243;-68
2023/07/13 03:45:53;;;;;;;4.43;1.63;;;15.30;94.70;;;;;;2066104;28;20531;-69
2023/07/13 03:46:54;;;;;;;3.50;1.40;;;15.40;94.40;;;;;;2074388;28;20228;-69
2023/07/13 03:47:55;;;;;;;2.95;1.48;;;15.40;94.30;;;;;;2069351;28;20226;-69
2023/07/13 03:48:56;;;;;;;2.38;1.25;;;15.50;94.10;;;;;;2081504;28;20327;-69
2023/07/13 03:49:57;;;;;;;3.00;1.33;;;15.50;93.80;;;;;;2080953;28;20285;-68
2023/07/13 03:51:00;;;;;;;1.57;1.30;;;15.60;93.70;;;;;;2081263;28;20712;-68
2023/07/13 03:52:01;;;;;;;1.98;1.30;;;15.60;93.70;;;;;;2070203;28;20368;-70
2023/07/13 03:53:02;;;;;;;3.95;1.27;;;15.60;94.30;;;;;;2069152;28;20347;-69
2023/07/13 03:54:03;;;;;;;5.80;1.50;;;15.60;94.00;;;;;;2078381;28;20201;-68
2023/07/13 03:55:05;;;;;;;4.30;1.38;;;15.60;94.00;;;;;;2062339;28;20186;-68
2023/07/13 03:56:07;;;;;;;2.75;1.40;;;15.60;94.10;;;;;;2070896;28;20193;-67
2023/07/13 03:57:08;;;;;;;1.88;1.17;;;15.60;94.10;;;;;;2077442;28;20193;-68
2023/07/13 03:58:38;;;;;;;3.73;1.60;;;15.70;94.00;;;;;;2078063;28;20264;-68
2023/07/13 03:59:39;;;;;;;4.40;1.60;;;15.80;92.90;;;;;;2079886;28;20466;-68
2023/07/13 04:00:40;;;;;;;4.50;1.50;;;15.80;92.70;;;;;;2070837;28;20482;-68
2023/07/13 04:01:40;;;;;;;5.80;1.90;;;15.70;93.50;;;;;;2070322;28;20303;-68
2023/07/13 04:02:41;;;;;;;5.40;1.80;;;15.70;94.00;;;;;;2077907;28;20303;-68
2023/07/13 04:03:44;;;;;;;3.70;1.45;;;15.70;94.00;;;;;;2081677;28;20262;-68
2023/07/13 04:04:44;;;;;;;5.03;1.92;;;15.70;94.10;;;;;;2075987;28;20334;-68
2023/07/13 04:05:46;;;;;;;3.30;1.53;;;15.80;94.00;;;;;;2068560;28;20279;-68
2023/07/13 04:06:46;;;;;;;2.97;1.00;;;15.80;93.90;;;;;;2077122;28;20307;-68
2023/07/13 04:07:47;;;;;;;3.43;1.40;;;15.60;94.60;;;;;;2078889;28;20227;-69
2023/07/13 04:08:51;;;;;;;2.27;1.50;;;15.40;95.20;;;;;;2082109;28;20235;-68
2023/07/13 04:09:52;;;;;;;2.50;1.57;;;15.30;95.70;;;;;;2078380;28;20370;-68
2023/07/13 04:10:53;;;;;;;2.40;1.23;;;15.30;95.20;;;;;;2078819;28;20887;-68
2023/07/13 04:11:55;;;;;;;3.83;1.73;;;15.40;94.80;;;;;;2078169;28;20228;-68
2023/07/13 04:12:56;;;;;;;1.23;1.13;;;15.50;95.00;;;;;;2072635;28;20238;-68
2023/07/13 04:13:57;;;;;;;2.10;1.40;;;15.50;94.30;;;;;;2082740;28;20290;-69
2023/07/13 04:14:58;;;;;;;1.83;1.42;;;15.50;94.20;;;;;;2077032;28;20581;-68
2023/07/13 04:15:59;;;;;;;2.27;1.80;;;15.60;94.20;;;;;;2071057;28;20264;-68
2023/07/13 04:16:59;;;;;;;2.70;1.60;;;15.70;94.60;;;;;;2086059;28;20480;-68
2023/07/13 04:18:00;;;;;;;2.23;1.50;;;15.60;94.30;;;;;;2073599;28;20228;-68
2023/07/13 04:19:02;;;;;;;5.53;1.50;;;15.70;94.80;;;;;;2074201;28;20246;-72
2023/07/13 04:20:03;;;;;;;2.27;1.40;;;15.70;95.20;;;;;;2076512;28;20247;-69
2023/07/13 04:21:04;;;;;;;3.80;1.50;;;15.70;95.30;;;;;;2072667;28;20439;-68
2023/07/13 04:22:05;;;;;;;4.70;1.30;;;15.60;95.80;;;;;;2082249;28;20521;-68
2023/07/13 04:23:06;;;;;;;3.17;1.77;;;15.60;95.50;;;;;;2078152;28;20192;-68
2023/07/13 04:24:07;;;;;;;2.67;1.57;;;15.50;95.70;;;;;;2083840;28;20234;-69
2023/07/13 04:25:08;;;;;;;2.93;1.20;;;15.60;95.50;;;;;;2087099;28;20184;-68
2023/07/13 04:26:09;;;;;;;3.03;1.43;;;15.70;94.80;;;;;;2078273;28;20929;-69
2023/07/13 04:27:10;;;;;;;3.33;1.50;;;15.80;95.00;;;;;;2070179;28;20448;-69
2023/07/13 04:28:12;;;;;;;5.53;1.50;;;15.80;94.20;;;;;;2074485;28;20198;-68
2023/07/13 04:29:13;;;;;;;2.25;1.30;;;15.90;94.30;;;;;;2078418;28;20184;-68
2023/07/13 04:30:13;;;;;;;2.20;1.57;;;15.90;94.40;;;;;;2078554;28;20742;-68
2023/07/13 04:31:15;;;;;;;1.70;1.40;;;15.90;94.20;;;;;;2077780;28;20284;-69
2023/07/13 04:32:15;;;;;;;2.28;1.45;;;16.00;94.20;;;;;;2075271;28;20728;-68
2023/07/13 04:33:16;;;;;;;2.10;1.27;;;16.00;94.20;;;;;;2076952;28;20196;-68
2023/07/13 04:34:17;;;;;;;3.67;1.40;;;16.10;94.00;;;;;;2083104;28;20656;-70
2023/07/13 04:35:20;;;;;;;2.83;1.63;;;16.10;94.10;;;;;;2086159;28;20409;-68
2023/07/13 04:36:21;;;;;;;2.85;1.42;;;16.10;93.90;;;;;;2070465;28;20234;-68
2023/07/13 04:37:21;;;;;;;4.23;1.87;;;16.00;93.80;;;;;;2070576;28;20222;-68
2023/07/13 04:38:25;;;;;;;3.60;1.80;;;16.00;94.20;;;;;;2085888;28;20220;-68
2023/07/13 04:39:26;;;;;;;3.10;1.80;;;16.10;94.50;;;;;;2076166;28;20229;-68
2023/07/13 04:40:28;;;;;;;2.13;1.50;;;16.10;94.40;;;;;;2074428;28;20834;-68
2023/07/13 04:41:28;;;;;;;2.40;1.57;;;16.10;94.40;;;;;;2078126;28;20225;-68
2023/07/13 04:42:29;;;;;;;4.07;2.07;;;16.20;94.40;;;;;;2082060;28;20851;-67
2023/07/13 04:43:32;;;;;;;1.93;1.50;;;16.20;94.50;;;;;;2070189;28;20229;-68
2023/07/13 04:44:32;;;;;;;2.60;1.23;;;16.20;94.30;;;;;;2068217;28;20499;-67
2023/07/13 04:45:35;;;;;;;3.83;1.60;;;16.20;94.30;;;;;;2078611;28;20474;-67
2023/07/13 04:46:35;;;;;;;3.50;1.30;;;16.20;94.10;;;;;;2078805;28;20714;-68
2023/07/13 04:47:36;;;;;;;2.50;1.50;;;16.20;94.20;;;;;;2079277;28;20539;-67
2023/07/13 04:48:37;;;;;;;4.23;1.33;;;16.20;94.50;;;;;;2070440;28;20650;-68
2023/07/13 04:49:38;;;;;;;1.87;1.50;;;16.10;94.20;;;;;;2074827;28;20716;-68
2023/07/13 04:50:39;;;;;;;2.33;1.60;;;16.20;94.10;;;;;;2078166;28;20470;-68
2023/07/13 04:51:40;;;;;;;4.17;1.50;;;16.30;94.10;;;;;;2078202;28;20243;-67
2023/07/13 04:52:42;;;;;;;3.50;1.70;;;16.30;93.80;;;;;;2075119;28;20532;-67
2023/07/13 04:53:43;;;;;;;4.90;1.60;;;16.30;94.50;;;;;;2075323;28;20323;-68
2023/07/13 04:54:43;;;;;;;7.73;1.60;;;16.20;94.90;;;;;;2078806;28;20903;-68
2023/07/13 04:55:44;;;;;;;2.97;1.57;;;16.10;94.90;;;;;;2062550;28;20555;-68
2023/07/13 04:56:45;;;;;;;2.00;1.43;;;16.00;95.00;;;;;;2054566;28;20238;-69
2023/07/13 04:57:46;;;;;;;2.50;1.50;;;16.00;95.20;;;;;;2062224;28;20711;-67
2023/07/13 04:58:47;;;;;;;1.90;1.50;;;15.90;95.70;;;;;;2070566;28;20236;-67
2023/07/13 04:59:48;;;;;;;1.83;1.40;;;15.90;95.80;;;;;;2078551;28;20462;-67
2023/07/13 05:00:49;;;;;;;2.23;1.40;;;15.80;96.30;;;;;;2078557;28;20378;-67
2023/07/13 05:01:50;;;;;;;5.73;1.60;;;15.80;96.40;;;;;;2070456;28;20324;-67
2023/07/13 05:02:55;;;;;;;1.93;1.50;;;15.80;96.30;;;;;;2070874;28;20481;-70
2023/07/13 05:03:58;;;;;;;5.03;1.60;;;15.80;94.90;;;;;;2070796;28;20868;-68
2023/07/13 05:04:59;;;;;;;3.77;1.67;;;15.90;94.30;;;;;;2070556;28;20467;-68
2023/07/13 05:06:09;;;;;;;1.90;1.60;;;16.00;94.20;;;;;;2070241;28;20482;-68
2023/07/13 05:07:13;;;;;;;2.13;1.50;;;16.10;94.10;;;;;;2069806;28;20265;-68
2023/07/13 05:08:14;;;;;;;2.85;1.73;;;16.20;93.90;;;;;;2068274;28;20427;-67
2023/07/13 05:09:14;;;;;;;5.33;1.53;;;16.20;93.60;;;;;;2080355;28;20240;-68
2023/07/13 05:10:17;;;;;;;2.60;1.60;;;16.30;93.30;;;;;;2076299;28;20220;-68
2023/07/13 05:11:18;;;;;;;2.33;1.80;;;16.40;93.10;;;;;;2070468;28;20193;-68
2023/07/13 05:12:19;;;;;;;3.83;1.57;;;16.40;93.10;;;;;;2071991;28;20478;-68
2023/07/13 05:13:21;;;;;;;2.60;1.50;;;16.50;92.90;;;;;;2068292;28;20814;-68
2023/07/13 05:14:21;;;;;;;1.50;1.40;;;16.50;92.90;;;;;;2072037;28;20736;-67
2023/07/13 05:15:23;;;;;;;2.67;1.60;;;16.60;92.90;;;;;;2076237;28;20471;-67
2023/07/13 05:16:24;;;;;;;2.47;1.73;;;16.70;93.50;;;;;;2076545;28;20225;-67
2023/07/13 05:17:24;;;;;;;3.30;1.50;;;16.70;93.10;;;;;;2076709;28;20463;-68
2023/07/13 05:18:25;;;;;;;3.17;1.70;;;16.90;92.40;;;;;;2076963;28;21010;-68
2023/07/13 05:19:26;;;;;;;4.10;1.67;;;17.00;92.00;;;;;;2076432;28;20228;-68
2023/07/13 05:20:27;;;;;;;2.63;1.37;;;17.10;91.80;;;;;;2080153;28;20231;-68
2023/07/13 05:21:27;;;;;;;1.67;1.40;;;17.20;91.20;;;;;;2080527;28;20701;-68
2023/07/13 05:22:28;;;;;;;2.43;1.50;;;17.30;90.90;;;;;;2084092;28;20322;-68